Time;durP1;ratioP1;P1;durP2;ratioP2;P2;SDS_P1;SDS_P2;PMS_P1;PMS_P2;Temp;Humidity;BMP_temperature;BMP_pressure;BME280_temperature;BME280_humidity;BME280_pressure;Samples;Min_cycle;Max_cycle;Signal;HPM_P1;HPM_P2
2022/06/30 00:00:15;;;;;;;;;0.00;0.00;;;;;19.48;53.40;100947.66;6279323;22;45165;-77
2022/06/30 00:02:40;;;;;;;;;1.00;1.00;;;;;19.39;53.84;100953.34;6278925;22;45264;-77
2022/06/30 00:05:06;;;;;;;;;1.00;1.00;;;;;19.30;53.85;100943.00;6250624;22;45226;-78
2022/06/30 00:07:32;;;;;;;;;1.00;0.00;;;;;19.23;54.44;100944.16;6250962;22;46112;-77
2022/06/30 00:09:58;;;;;;;;;0.00;0.00;;;;;19.15;54.27;100931.94;6278760;22;45205;-77
2022/06/30 00:12:23;;;;;;;;;0.67;0.67;;;;;19.11;54.46;100942.78;6278589;22;45239;-78
2022/06/30 00:14:52;;;;;;;;;1.00;1.00;;;;;19.07;54.91;100955.38;6251583;22;45254;-77
2022/06/30 00:17:17;;;;;;;;;1.00;1.00;;;;;19.05;54.93;100956.34;6279008;22;46579;-78
2022/06/30 00:19:45;;;;;;;;;1.00;1.00;;;;;19.01;55.04;100966.28;6278916;22;45252;-77
2022/06/30 00:22:11;;;;;;;;;0.00;0.00;;;;;18.95;55.52;100956.69;6279327;22;45244;-78
2022/06/30 00:24:37;;;;;;;;;1.00;1.00;;;;;18.94;55.49;100952.25;6279230;22;45457;-78
2022/06/30 00:27:03;;;;;;;;;1.33;0.67;;;;;18.95;55.90;100956.69;6280349;22;45251;-79
2022/06/30 00:29:28;;;;;;;;;0.67;0.67;;;;;18.91;55.70;100957.72;6280866;22;45279;-77
2022/06/30 00:31:53;;;;;;;;;1.33;1.33;;;;;18.86;55.68;100951.66;6252304;22;45254;-77
2022/06/30 00:34:19;;;;;;;;;1.67;1.67;;;;;18.83;56.17;100951.78;6250923;22;45621;-77
2022/06/30 00:36:44;;;;;;;;;1.00;1.00;;;;;18.77;56.34;100954.66;6278306;22;45262;-77
2022/06/30 00:39:10;;;;;;;;;1.00;1.00;;;;;18.73;56.64;100963.66;6278640;22;45243;-77
2022/06/30 00:41:40;;;;;;;;;1.00;1.00;;;;;18.72;56.84;100968.13;6279100;22;45382;-77
2022/06/30 00:44:07;;;;;;;;;1.00;1.00;;;;;18.69;56.72;100957.56;6250689;22;45441;-77
2022/06/30 00:46:33;;;;;;;;;3.00;3.00;;;;;18.63;56.98;100957.78;6278250;22;45436;-77
2022/06/30 00:48:59;;;;;;;;;1.00;1.00;;;;;18.61;57.20;100962.28;6278640;22;45180;-77
2022/06/30 00:51:25;;;;;;;;;1.00;1.00;;;;;18.56;57.47;100963.34;6276313;22;45383;-77
2022/06/30 00:53:52;;;;;;;;;2.00;2.00;;;;;18.55;57.74;100962.50;6278372;22;45404;-77
2022/06/30 00:56:21;;;;;;;;;1.33;1.00;;;;;18.51;57.90;100964.38;6278001;22;46281;-77
2022/06/30 00:58:48;;;;;;;;;1.00;1.00;;;;;18.49;58.01;100950.22;6250411;22;45138;-77
2022/06/30 01:01:17;;;;;;;;;1.25;1.25;;;;;18.46;57.85;100949.44;6250552;22;45310;-77
2022/06/30 01:03:43;;;;;;;;;0.00;0.00;;;;;18.46;57.81;100941.44;6278307;22;45259;-78
2022/06/30 01:06:10;;;;;;;;;2.00;2.00;;;;;18.43;58.24;100952.22;6250250;22;47142;-77
2022/06/30 01:08:35;;;;;;;;;2.75;2.75;;;;;18.39;58.48;100954.13;6250368;22;45197;-76
2022/06/30 01:13:47;;;;;;;;;1.67;1.67;;;;;18.37;58.39;100945.31;6278294;22;45468;-76
2022/06/30 01:16:13;;;;;;;;;1.00;1.00;;;;;18.35;58.39;100941.81;6278160;22;46306;-76
2022/06/30 01:18:39;;;;;;;;;2.00;2.00;;;;;18.34;58.66;100939.22;6250687;22;45593;-77
2022/06/30 01:21:04;;;;;;;;;1.00;1.00;;;;;18.33;58.56;100954.31;6250528;22;45392;-77
2022/06/30 01:23:30;;;;;;;;;2.50;2.50;;;;;18.32;58.54;100952.56;6278530;22;45256;-76
2022/06/30 01:25:55;;;;;;;;;2.25;1.00;;;;;18.29;58.85;100950.00;6276471;22;48305;-76
2022/06/30 01:28:21;;;;;;;;;1.67;1.67;;;;;18.31;58.98;100958.84;6278573;22;45349;-77
2022/06/30 01:30:46;;;;;;;;;3.00;2.67;;;;;18.29;58.79;100945.53;6278760;22;45389;-77
2022/06/30 01:33:13;;;;;;;;;1.00;1.00;;;;;18.28;58.85;100949.16;6278360;22;45216;-75
2022/06/30 01:35:38;;;;;;;;;1.67;1.67;;;;;18.26;58.84;100952.78;6250052;22;47219;-77
2022/06/30 01:38:05;;;;;;;;;1.67;1.67;;;;;18.22;58.50;100956.44;6278125;22;45408;-77
2022/06/30 01:40:35;;;;;;;;;1.00;1.00;;;;;18.21;58.41;100960.06;6278473;22;45224;-76
2022/06/30 01:43:02;;;;;;;;;2.33;1.00;;;;;18.15;58.80;100944.22;6278061;22;45245;-77
2022/06/30 01:45:27;;;;;;;;;1.67;1.00;;;;;18.12;58.61;100949.66;6277936;22;45190;-76
2022/06/30 01:47:53;;;;;;;;;3.00;2.33;;;;;18.06;58.65;100958.72;6277990;22;45168;-76
2022/06/30 01:50:21;;;;;;;;;1.33;1.33;;;;;18.02;59.32;100957.09;6250184;22;45386;-77
2022/06/30 01:52:47;;;;;;;;;1.67;1.00;;;;;17.95;59.20;100953.72;6277867;22;45416;-77
2022/06/30 01:55:13;;;;;;;;;2.00;2.00;;;;;17.89;59.10;100967.25;6277887;22;46014;-76
2022/06/30 01:57:39;;;;;;;;;1.33;1.00;;;;;17.84;59.48;100971.84;6278057;22;45498;-77
2022/06/30 02:00:11;;;;;;;;;2.00;1.75;;;;;17.78;59.70;100972.00;6278320;22;45338;-77
2022/06/30 02:02:37;;;;;;;;;2.33;2.00;;;;;17.77;59.84;100984.41;6249979;22;45406;-77
2022/06/30 02:05:04;;;;;;;;;2.00;2.00;;;;;17.77;60.05;100986.22;6250553;22;46731;-76
2022/06/30 02:07:29;;;;;;;;;2.00;2.00;;;;;17.76;60.18;100988.00;6278033;22;45360;-76
2022/06/30 02:09:55;;;;;;;;;1.33;1.33;;;;;17.72;60.33;100969.50;6276818;22;45264;-76
2022/06/30 02:15:09;;;;;;;;;2.00;1.67;;;;;17.76;60.19;100952.53;6279134;22;45742;-76
2022/06/30 02:17:35;;;;;;;;;3.00;3.00;;;;;17.71;60.32;100950.00;6279287;22;45253;-77
2022/06/30 02:20:01;;;;;;;;;3.67;2.00;;;;;17.69;60.21;100946.50;6279259;22;45439;-76
2022/06/30 02:22:27;;;;;;;;;3.00;1.33;;;;;17.70;60.11;100937.59;6279395;22;45516;-77
2022/06/30 02:24:52;;;;;;;;;2.25;2.25;;;;;17.73;60.01;100936.66;6279269;22;45358;-76
2022/06/30 02:27:21;;;;;;;;;2.50;2.50;;;;;17.65;60.49;100939.53;6279237;22;45349;-77
2022/06/30 02:29:47;;;;;;;;;2.25;2.25;;;;;17.66;60.37;100935.06;6279648;22;45249;-77
2022/06/30 02:32:12;;;;;;;;;2.75;2.75;;;;;17.72;60.76;100938.44;6279243;22;45506;-76
2022/06/30 02:34:37;;;;;;;;;4.00;4.00;;;;;17.73;60.51;100953.50;6278815;22;46039;-77
2022/06/30 02:37:03;;;;;;;;;2.00;2.00;;;;;17.67;60.65;100940.38;6279167;22;45257;-77
2022/06/30 02:39:28;;;;;;;;;2.75;2.25;;;;;17.72;60.58;100942.88;6279363;22;45267;-76
2022/06/30 02:41:54;;;;;;;;;3.25;3.25;;;;;17.68;60.81;100936.78;6251776;22;45245;-76
2022/06/30 02:44:19;;;;;;;;;2.00;2.00;;;;;17.67;60.72;100939.47;6251225;22;47164;-77
2022/06/30 02:46:44;;;;;;;;;2.00;2.00;;;;;17.61;60.93;100929.88;6279174;22;45186;-77
2022/06/30 02:49:10;;;;;;;;;3.00;3.00;;;;;17.68;61.08;100934.09;6276822;22;45295;-77
2022/06/30 02:51:35;;;;;;;;;2.50;2.50;;;;;17.65;60.80;100926.22;6279259;22;45102;-77
2022/06/30 02:54:01;;;;;;;;;3.00;2.00;;;;;17.68;60.61;100939.44;6279221;22;45445;-76
2022/06/30 02:56:26;;;;;;;;;3.00;2.25;;;;;17.67;60.37;100948.34;6278992;22;45210;-76
2022/06/30 02:58:52;;;;;;;;;3.75;3.00;;;;;17.62;60.52;100940.50;6279318;22;45381;-76
2022/06/30 03:01:17;;;;;;;;;3.25;3.25;;;;;17.63;60.51;100954.69;6279085;22;45301;-76
2022/06/30 03:03:43;;;;;;;;;2.00;2.00;;;;;17.61;60.53;100953.84;6251511;22;46947;-76
2022/06/30 03:06:08;;;;;;;;;3.75;3.00;;;;;17.61;60.71;100954.75;6279001;22;45296;-76
2022/06/30 03:08:33;;;;;;;;;3.00;3.00;;;;;17.66;60.48;100965.22;6251434;22;45652;-76
2022/06/30 03:10:59;;;;;;;;;5.75;4.75;;;;;17.66;60.18;100961.69;6279360;22;45258;-77
2022/06/30 03:13:25;;;;;;;;;4.25;4.25;;;;;17.60;60.31;100966.28;6250756;22;46050;-76
2022/06/30 03:15:50;;;;;;;;;2.00;2.00;;;;;17.63;60.46;100962.66;6277201;22;45331;-76
2022/06/30 03:18:16;;;;;;;;;3.50;3.00;;;;;17.66;60.64;100959.03;6279054;22;45168;-76
2022/06/30 03:20:41;;;;;;;;;4.00;3.00;;;;;17.66;60.40;100954.56;6250532;22;45217;-77
2022/06/30 03:23:07;;;;;;;;;4.50;3.00;;;;;17.67;60.32;100959.00;6251120;22;47687;-77
2022/06/30 03:25:32;;;;;;;;;3.25;3.25;;;;;17.66;60.46;100967.03;6278888;22;45173;-77
2022/06/30 03:27:58;;;;;;;;;2.75;2.75;;;;;17.70;60.28;100974.03;6251693;22;45141;-76
2022/06/30 03:30:23;;;;;;;;;4.00;2.33;;;;;17.67;60.44;100967.00;6279190;22;45209;-76
2022/06/30 03:32:49;;;;;;;;;4.00;4.00;;;;;17.72;60.01;100974.81;6276798;22;46034;-76
2022/06/30 03:35:14;;;;;;;;;2.75;2.75;;;;;17.72;60.16;100973.06;6278672;22;45199;-76
2022/06/30 03:37:39;;;;;;;;;3.50;3.00;;;;;17.70;60.27;100968.69;6279219;22;45174;-77
2022/06/30 03:40:05;;;;;;;;;4.25;4.25;;;;;17.72;60.29;100953.53;6279202;22;45192;-76
2022/06/30 03:42:31;;;;;;;;;4.00;4.00;;;;;17.70;60.35;100936.75;6277065;22;46891;-77
2022/06/30 03:44:56;;;;;;;;;2.67;1.67;;;;;17.70;60.29;100947.41;6251132;22;45599;-76
2022/06/30 03:47:22;;;;;;;;;3.25;2.00;;;;;17.76;60.16;100971.16;6279448;22;45452;-76
2022/06/30 03:49:47;;;;;;;;;4.00;3.50;;;;;17.74;60.31;100973.88;6278859;22;45460;-77
2022/06/30 03:52:12;;;;;;;;;2.25;2.25;;;;;17.73;60.27;100973.94;6278922;22;45302;-76
2022/06/30 03:54:38;;;;;;;;;4.67;4.67;;;;;17.78;60.44;100983.53;6279019;22;45294;-76
2022/06/30 03:57:04;;;;;;;;;3.00;3.00;;;;;17.74;60.22;100971.19;6251733;22;45294;-76
2022/06/30 03:59:29;;;;;;;;;3.00;3.00;;;;;17.80;60.20;100983.50;6251151;22;45469;-76
2022/06/30 04:01:55;;;;;;;;;2.00;2.00;;;;;17.80;60.18;100995.03;6279245;22;46176;-77
2022/06/30 04:04:21;;;;;;;;;3.67;3.67;;;;;17.77;60.09;100994.19;6278881;22;45360;-77
2022/06/30 04:06:46;;;;;;;;;3.00;3.00;;;;;17.71;60.15;100995.25;6279091;22;45303;-77
2022/06/30 04:09:12;;;;;;;;;6.25;4.25;;;;;17.69;60.23;101001.53;6278953;22;45161;-77
2022/06/30 04:11:37;;;;;;;;;5.00;4.00;;;;;17.67;60.32;100996.28;6278907;22;45197;-77
2022/06/30 04:14:02;;;;;;;;;4.00;3.00;;;;;17.68;60.04;100991.81;6278235;22;45428;-76
2022/06/30 04:16:28;;;;;;;;;4.67;4.67;;;;;17.62;60.47;100991.09;6278864;22;45178;-76
2022/06/30 04:18:54;;;;;;;;;6.67;5.00;;;;;17.62;60.49;100996.41;6278826;22;45366;-77
2022/06/30 04:21:19;;;;;;;;;5.50;3.75;;;;;17.64;60.39;100983.94;6250301;22;47553;-76
2022/06/30 04:23:44;;;;;;;;;3.67;3.00;;;;;17.61;60.70;100977.81;6278660;22;45223;-76
2022/06/30 04:26:10;;;;;;;;;6.25;3.25;;;;;17.63;60.75;100973.31;6278884;22;45216;-75
2022/06/30 04:28:36;;;;;;;;;4.00;4.00;;;;;17.62;60.76;100963.59;6278695;22;45182;-77
2022/06/30 04:33:46;;;;;;;;;4.00;4.00;;;;;17.63;61.19;100974.19;6278607;22;45165;-76
2022/06/30 04:36:11;;;;;;;;;5.33;5.33;;;;;17.61;61.22;100981.38;6278380;22;45239;-77
2022/06/30 04:38:37;;;;;;;;;4.50;4.00;;;;;17.63;60.96;101000.81;6278872;22;45330;-76
2022/06/30 04:43:46;;;;;;;;;4.75;4.00;;;;;17.53;61.13;100993.13;6278720;22;45232;-76
2022/06/30 04:46:11;;;;;;;;;5.25;5.00;;;;;17.52;61.42;100996.72;6278729;22;45148;-77
2022/06/30 04:48:37;;;;;;;;;2.67;2.33;;;;;17.52;61.33;100997.59;6276591;22;45260;-77
2022/06/30 04:51:02;;;;;;;;;4.75;4.00;;;;;17.50;61.51;100998.53;6278271;22;45433;-76
2022/06/30 04:53:28;;;;;;;;;4.67;4.67;;;;;17.54;61.40;100994.91;6250911;22;45862;-77
2022/06/30 04:55:53;;;;;;;;;3.50;3.00;;;;;17.49;61.63;100981.69;6278834;22;45345;-78
2022/06/30 04:58:18;;;;;;;;;7.00;5.00;;;;;17.51;61.79;100966.56;6279229;22;45315;-76
2022/06/30 05:00:44;;;;;;;;;3.50;3.50;;;;;17.51;61.67;100977.22;6250929;22;45875;-77
2022/06/30 05:03:09;;;;;;;;;5.67;5.00;;;;;17.52;62.08;100981.59;6278938;22;45358;-76
2022/06/30 05:05:35;;;;;;;;;4.00;4.00;;;;;17.56;61.85;100975.28;6278600;22;45324;-77
2022/06/30 05:08:00;;;;;;;;;5.00;4.00;;;;;17.55;61.71;100956.69;6276170;22;45531;-76
2022/06/30 05:10:25;;;;;;;;;4.00;4.00;;;;;17.56;61.92;100967.31;6278299;22;46581;-77
2022/06/30 05:12:51;;;;;;;;;4.00;4.00;;;;;17.62;62.08;100963.59;6249973;22;46089;-77
2022/06/30 05:15:16;;;;;;;;;7.00;4.67;;;;;17.59;61.97;100953.91;6278530;22;45859;-77
2022/06/30 05:17:42;;;;;;;;;4.00;4.00;;;;;17.64;61.73;100959.06;6278841;22;45237;-77
2022/06/30 05:20:08;;;;;;;;;4.33;3.33;;;;;17.68;61.80;100958.06;6250308;22;47176;-77
2022/06/30 05:22:33;;;;;;;;;4.67;3.67;;;;;17.68;61.62;100954.53;6277856;22;45230;-76
2022/06/30 05:27:47;;;;;;;;;5.25;4.75;;;;;17.74;61.33;100952.56;6278183;22;45213;-76
2022/06/30 05:30:14;;;;;;;;;5.00;4.00;;;;;17.74;61.51;100949.03;6250034;22;46469;-76
2022/06/30 05:32:39;;;;;;;;;6.00;5.00;;;;;17.76;61.34;100960.50;6278103;22;45326;-76
2022/06/30 05:35:05;;;;;;;;;5.00;5.00;;;;;17.77;61.49;100976.44;6278007;22;45395;-76
2022/06/30 05:37:34;;;;;;;;;3.75;3.75;;;;;17.79;61.12;100984.41;6277991;22;45312;-76
2022/06/30 05:39:59;;;;;;;;;4.75;4.75;;;;;17.80;61.33;100968.41;6277487;22;45378;-76
2022/06/30 05:42:24;;;;;;;;;4.00;4.00;;;;;17.84;61.43;100970.03;6278597;22;45251;-76
2022/06/30 05:44:50;;;;;;;;;4.25;3.75;;;;;17.85;61.48;100973.56;6279766;22;45231;-76
2022/06/30 05:47:15;;;;;;;;;4.25;3.00;;;;;17.87;61.53;100977.06;6279770;22;45231;-76
2022/06/30 05:49:40;;;;;;;;;5.67;4.33;;;;;17.89;61.15;100988.56;6279270;22;46138;-76
2022/06/30 05:52:06;;;;;;;;;4.33;3.33;;;;;17.89;61.25;100982.38;6279584;22;45137;-76
2022/06/30 05:54:31;;;;;;;;;4.00;4.00;;;;;17.91;61.01;100984.06;6279619;22;45196;-77
2022/06/30 05:56:57;;;;;;;;;7.25;5.00;;;;;17.93;61.48;100982.19;6279595;22;45286;-76
2022/06/30 05:59:22;;;;;;;;;5.00;4.00;;;;;17.98;61.32;100987.41;6279289;22;45980;-76
2022/06/30 06:01:48;;;;;;;;;4.00;2.67;;;;;17.98;61.10;100982.94;6251899;22;45193;-76
2022/06/30 06:04:13;;;;;;;;;4.75;4.00;;;;;18.06;61.37;100991.56;6251399;22;45318;-76
2022/06/30 06:06:38;;;;;;;;;4.75;4.00;;;;;18.10;61.04;100999.50;6279349;22;45275;-77
2022/06/30 06:09:04;;;;;;;;;3.00;3.00;;;;;18.11;60.96;100990.56;6279173;22;45358;-79
2022/06/30 06:11:32;;;;;;;;;4.00;2.00;;;;;18.14;61.08;100999.31;6251535;22;45801;-78
2022/06/30 06:13:58;;;;;;;;;4.25;4.25;;;;;18.16;60.95;100994.81;6279128;22;45270;-79
2022/06/30 06:16:24;;;;;;;;;4.25;4.25;;;;;18.23;61.04;100995.50;6279293;22;45112;-77
2022/06/30 06:19:02;;;;;;;;;3.33;2.33;;;;;18.24;60.33;100998.13;6279119;22;45153;-77
2022/06/30 06:21:27;;;;;;;;;5.75;4.00;;;;;18.26;60.39;101001.63;6279247;22;45282;-77
2022/06/30 06:23:53;;;;;;;;;3.75;3.75;;;;;18.29;60.28;101003.31;6277532;22;45391;-77
2022/06/30 06:26:19;;;;;;;;;5.75;4.50;;;;;18.30;60.44;100999.72;6279484;22;45307;-76
2022/06/30 06:31:29;;;;;;;;;4.00;4.00;;;;;18.37;60.11;100985.28;6279236;22;45298;-76
2022/06/30 06:33:55;;;;;;;;;7.00;4.75;;;;;18.40;60.36;100984.31;6279063;22;45168;-76
2022/06/30 06:36:20;;;;;;;;;4.75;4.00;;;;;18.41;60.06;100997.56;6279160;22;45390;-77
2022/06/30 06:38:46;;;;;;;;;6.25;3.50;;;;;18.44;59.97;101000.19;6277113;22;46191;-78
2022/06/30 06:41:11;;;;;;;;;6.00;5.00;;;;;18.39;60.26;101001.22;6279103;22;45271;-78
2022/06/30 06:43:37;;;;;;;;;4.00;3.25;;;;;18.40;60.12;101001.19;6278940;22;45690;-78
2022/06/30 06:46:02;;;;;;;;;4.25;4.00;;;;;18.37;59.92;101017.28;6279319;22;45197;-78
2022/06/30 06:48:28;;;;;;;;;4.00;4.00;;;;;18.33;60.37;101018.28;6278959;22;45310;-78
2022/06/30 06:50:53;;;;;;;;;3.75;3.75;;;;;18.28;59.87;101023.78;6276651;22;45202;-78
2022/06/30 06:53:19;;;;;;;;;4.00;3.00;;;;;18.24;60.06;101023.91;6278832;22;45170;-77
2022/06/30 06:55:44;;;;;;;;;5.50;3.25;;;;;18.23;60.05;101031.03;6279116;22;45442;-77
2022/06/30 06:58:10;;;;;;;;;4.00;3.00;;;;;18.20;59.99;101020.47;6279065;22;45221;-77
2022/06/30 07:00:36;;;;;;;;;6.50;4.00;;;;;18.23;60.03;101038.13;6276995;22;45860;-77
2022/06/30 07:03:01;;;;;;;;;6.00;4.33;;;;;18.20;60.34;101039.13;6279250;22;45221;-77
2022/06/30 07:05:26;;;;;;;;;3.67;2.00;;;;;18.18;60.63;101045.44;6278774;22;45486;-77
2022/06/30 07:08:01;;;;;;;;;4.00;4.00;;;;;18.15;60.66;101046.41;6278695;22;45246;-77
2022/06/30 07:10:28;;;;;;;;;3.00;3.00;;;;;18.10;61.31;101058.13;6278505;22;45131;-77
2022/06/30 07:12:54;;;;;;;;;6.25;3.00;;;;;18.02;60.65;101056.53;6278633;22;45279;-75
2022/06/30 07:15:21;;;;;;;;;6.75;5.75;;;;;17.93;61.01;101059.44;6278542;22;45592;-76
2022/06/30 07:17:47;;;;;;;;;4.50;4.00;;;;;17.90;61.26;101066.69;6278602;22;45379;-75
2022/06/30 07:20:12;;;;;;;;;4.00;3.00;;;;;17.79;61.54;101048.34;6278206;22;45539;-75
2022/06/30 07:22:38;;;;;;;;;7.75;6.00;;;;;17.75;62.06;101055.53;6278639;22;45169;-75
2022/06/30 07:25:05;;;;;;;;;5.00;3.00;;;;;17.73;62.54;101052.03;6278573;22;45471;-76
2022/06/30 07:27:31;;;;;;;;;5.00;5.00;;;;;17.72;62.66;101057.38;6278932;22;45488;-75
2022/06/30 07:29:56;;;;;;;;;4.75;3.75;;;;;17.70;62.93;101053.91;6278484;22;45146;-75
2022/06/30 07:32:22;;;;;;;;;13.25;11.25;;;;;17.67;63.45;101060.19;6278918;22;45204;-75
2022/06/30 07:34:47;;;;;;;;;5.00;4.67;;;;;17.68;62.82;101053.94;6278229;22;45429;-75
2022/06/30 07:37:12;;;;;;;;;4.50;3.25;;;;;17.66;63.01;101044.25;6278727;22;46363;-78
2022/06/30 07:39:38;;;;;;;;;6.33;5.33;;;;;17.68;63.47;101058.41;6250312;22;45314;-77
2022/06/30 07:42:04;;;;;;;;;5.00;5.00;;;;;17.69;63.11;101058.34;6278447;22;45260;-76
2022/06/30 07:44:29;;;;;;;;;9.00;7.25;;;;;17.69;63.77;101047.69;6250210;22;45378;-77
2022/06/30 07:46:54;;;;;;;;;6.00;4.67;;;;;17.69;63.68;101041.50;6278202;22;45381;-77
2022/06/30 07:49:20;;;;;;;;;5.00;5.00;;;;;17.74;63.63;101050.22;6277997;22;45367;-77
2022/06/30 07:51:45;;;;;;;;;7.50;7.00;;;;;17.73;64.21;101049.34;6278775;22;45444;-77
2022/06/30 07:54:11;;;;;;;;;5.00;5.00;;;;;17.76;63.76;101056.38;6278453;22;45314;-76
2022/06/30 07:56:36;;;;;;;;;5.67;4.67;;;;;17.72;63.58;101055.63;6278307;22;46278;-75
2022/06/30 07:59:01;;;;;;;;;4.00;3.00;;;;;17.69;63.72;101057.47;6278402;22;45366;-76
2022/06/30 08:01:27;;;;;;;;;4.25;3.25;;;;;17.64;63.06;101060.25;6278533;22;45913;-76
2022/06/30 08:03:52;;;;;;;;;4.00;4.00;;;;;17.53;63.44;101049.91;6278116;22;45209;-75
2022/06/30 08:06:17;;;;;;;;;3.50;3.50;;;;;17.44;63.41;101039.53;6277597;22;45977;-76
2022/06/30 08:08:43;;;;;;;;;4.00;2.67;;;;;17.43;63.53;101053.75;6278289;22;45199;-76
2022/06/30 08:11:10;;;;;;;;;4.00;3.00;;;;;17.36;63.68;101045.03;6278801;22;45157;-77
2022/06/30 08:13:35;;;;;;;;;5.50;4.25;;;;;17.31;63.68;101038.09;6249923;22;45257;-76
2022/06/30 08:16:01;;;;;;;;;5.50;4.50;;;;;17.32;63.83;101053.16;6278223;22;46393;-77
2022/06/30 08:18:26;;;;;;;;;2.33;2.33;;;;;17.25;64.08;101044.47;6275064;22;45213;-76
2022/06/30 08:20:52;;;;;;;;;3.33;3.33;;;;;17.20;64.00;101039.25;6275953;22;45633;-75
2022/06/30 08:23:17;;;;;;;;;5.67;4.67;;;;;17.16;64.06;101042.03;6250606;22;45473;-75
2022/06/30 08:25:43;;;;;;;;;4.67;4.67;;;;;17.09;64.23;101045.78;6278471;22;45326;-75
2022/06/30 08:28:08;;;;;;;;;4.67;4.67;;;;;17.09;64.32;101059.94;6278616;22;45374;-75
2022/06/30 08:30:34;;;;;;;;;3.00;3.00;;;;;17.03;64.52;101036.19;6278774;22;45380;-75
2022/06/30 08:33:00;;;;;;;;;3.67;3.00;;;;;17.07;64.62;101031.63;6278544;22;45490;-76
2022/06/30 08:35:25;;;;;;;;;4.33;2.33;;;;;17.10;64.01;101034.22;6278051;22;46333;-75
2022/06/30 08:37:51;;;;;;;;;3.00;3.00;;;;;17.09;64.38;101028.03;6278358;22;45238;-75
2022/06/30 08:43:03;;;;;;;;;5.25;4.00;;;;;17.10;64.25;101028.91;6277937;22;45326;-75
2022/06/30 08:45:29;;;;;;;;;5.00;4.00;;;;;17.11;64.38;101033.31;6250101;22;47297;-75
2022/06/30 08:47:56;;;;;;;;;2.33;2.33;;;;;17.20;64.03;101035.72;6277966;22;45335;-75
2022/06/30 08:50:21;;;;;;;;;4.00;3.50;;;;;17.23;63.92;101024.13;6277700;22;45178;-75
2022/06/30 08:52:53;;;;;;;;;3.00;3.00;;;;;17.29;63.88;101019.50;6278007;22;45301;-75
2022/06/30 08:55:26;;;;;;;;;4.00;3.00;;;;;17.35;63.69;101021.16;6277712;22;45218;-76
2022/06/30 08:57:57;;;;;;;;;4.50;4.00;;;;;17.49;64.04;101018.09;6277811;22;45398;-77
2022/06/30 09:00:23;;;;;;;;;4.00;3.00;;;;;17.54;63.89;101003.75;6278151;22;45422;-77
2022/06/30 09:02:49;;;;;;;;;5.50;4.75;;;;;17.63;63.50;101008.78;6277920;22;45229;-78
2022/06/30 09:05:15;;;;;;;;;3.50;2.00;;;;;17.66;63.25;101001.66;6277628;22;45271;-79
2022/06/30 09:07:41;;;;;;;;;3.25;3.25;;;;;17.70;62.71;101004.19;6250136;22;45387;-79
2022/06/30 09:10:07;;;;;;;;;3.00;3.00;;;;;17.72;62.49;101009.44;6277981;22;45114;-79
2022/06/30 09:12:33;;;;;;;;;1.67;1.67;;;;;17.69;62.47;100989.09;6249493;22;45438;-78
2022/06/30 09:15:00;;;;;;;;;3.00;3.00;;;;;17.66;62.26;100997.19;6277390;22;45480;-77
2022/06/30 09:17:28;;;;;;;;;1.00;1.00;;;;;17.64;62.13;100988.34;6278508;22;45269;-77
2022/06/30 09:19:57;;;;;;;;;2.00;2.00;;;;;17.66;61.95;100988.31;6278997;22;45291;-79
2022/06/30 09:22:25;;;;;;;;;3.00;3.00;;;;;17.64;62.12;100993.69;6278701;22;45390;-79
2022/06/30 09:24:57;;;;;;;;;2.67;2.67;;;;;17.64;61.83;100997.25;6278382;22;46610;-78
2022/06/30 09:27:24;;;;;;;;;2.00;2.00;;;;;17.60;61.81;101002.69;6279245;22;45421;-79
2022/06/30 09:30:01;;;;;;;;;3.67;2.00;;;;;17.66;61.87;101017.63;6251474;22;45251;-76
2022/06/30 09:32:26;;;;;;;;;3.00;2.00;;;;;17.64;61.56;101017.66;6279198;22;45204;-75
2022/06/30 09:34:52;;;;;;;;;1.00;1.00;;;;;17.64;61.87;101023.88;6278606;22;45345;-78
2022/06/30 09:37:21;;;;;;;;;3.33;3.00;;;;;17.62;61.88;101022.16;6250748;22;45503;-80
2022/06/30 09:39:49;;;;;;;;;4.67;3.67;;;;;17.63;62.19;101037.22;6277010;22;45308;-78
2022/06/30 09:42:15;;;;;;;;;3.33;3.00;;;;;17.63;62.40;101043.41;6246167;22;45324;-79
2022/06/30 09:44:47;;;;;;;;;3.33;3.33;;;;;17.64;62.69;101038.94;6248975;22;48215;-79
2022/06/30 09:47:12;;;;;;;;;3.67;3.67;;;;;17.63;62.48;101035.41;6248300;22;45351;-78
2022/06/30 09:49:40;;;;;;;;;5.33;2.33;;;;;17.65;62.07;101035.38;6275115;22;45658;-78
2022/06/30 09:52:16;;;;;;;;;2.00;1.33;;;;;17.64;62.54;101030.97;6249133;22;45609;-79
2022/06/30 09:54:53;;;;;;;;;2.00;2.00;;;;;17.67;62.67;101038.88;6276738;22;45362;-78
2022/06/30 09:57:19;;;;;;;;;2.00;2.00;;;;;17.67;62.70;101041.56;6277287;22;45447;-78
2022/06/30 09:59:44;;;;;;;;;3.00;3.00;;;;;17.63;62.31;101047.88;6278333;22;45335;-78
2022/06/30 10:02:10;;;;;;;;;2.00;2.00;;;;;17.61;62.57;101045.25;6277195;22;45300;-78
2022/06/30 10:04:56;;;;;;;;;3.00;3.00;;;;;17.59;62.74;101043.56;6276889;22;46049;-78
2022/06/30 10:07:22;;;;;;;;;2.67;2.67;;;;;17.57;62.69;101045.38;6249717;22;45875;-79
2022/06/30 10:09:49;;;;;;;;;1.67;1.67;;;;;17.57;62.51;101045.38;6277544;22;45300;-77
2022/06/30 10:12:20;;;;;;;;;1.67;1.67;;;;;17.56;62.08;101036.53;6274548;22;45461;-77
2022/06/30 10:14:49;;;;;;;;;4.00;3.00;;;;;17.57;62.60;101042.72;6274149;22;45831;-80
2022/06/30 10:17:17;;;;;;;;;2.00;2.00;;;;;17.54;62.30;101042.81;6277669;22;45244;-79
2022/06/30 10:19:43;;;;;;;;;3.33;2.67;;;;;17.56;62.75;101049.84;6250638;22;45324;-80
2022/06/30 10:22:09;;;;;;;;;2.33;2.33;;;;;17.57;63.07;101061.34;6276538;22;45430;-80
2022/06/30 10:25:27;;;;;;;;;2.33;2.33;;;;;17.57;62.75;101072.00;6248850;22;47136;-81
2022/06/30 10:27:52;;;;;;;;;5.00;3.00;;;;;17.52;63.08;101069.47;6238577;22;45716;-81
2022/06/30 10:30:23;;;;;;;;;4.67;4.33;;;;;17.46;63.15;101061.66;6277432;22;45200;-82
2022/06/30 10:32:49;;;;;;;;;2.67;2.00;;;;;17.46;63.13;101068.78;6247795;22;45631;-82
2022/06/30 10:35:22;;;;;;;;;3.33;3.33;;;;;17.34;63.39;101073.47;6277248;22;45567;-79
2022/06/30 10:37:56;;;;;;;;;3.67;3.00;;;;;17.33;63.56;101079.72;6249325;22;45572;-79
2022/06/30 10:40:40;;;;;;;;;3.00;3.00;;;;;17.31;63.68;101078.88;6275638;22;45345;-80
2022/06/30 10:43:06;;;;;;;;;2.00;2.00;;;;;17.28;64.14;101072.78;6277093;22;45172;-80
2022/06/30 10:45:36;;;;;;;;;1.33;1.33;;;;;17.29;64.19;101072.72;6276244;22;46107;-78
2022/06/30 10:48:08;;;;;;;;;3.67;2.67;;;;;17.31;64.21;101073.56;6277931;22;45363;-78
2022/06/30 10:50:37;;;;;;;;;4.00;3.00;;;;;17.40;64.33;101083.09;6278104;22;45247;-78
2022/06/30 10:53:06;;;;;;;;;2.00;2.00;;;;;17.42;64.45;101075.94;6278018;22;45380;-79
2022/06/30 10:55:42;;;;;;;;;3.75;3.75;;;;;17.53;64.39;101099.63;6277523;22;45164;-77
2022/06/30 10:58:08;;;;;;;;;5.00;5.00;;;;;17.52;64.39;101097.88;6250317;22;45459;-77
2022/06/30 11:00:50;;;;;;;;;5.00;4.25;;;;;17.57;64.57;101104.81;6278127;22;45378;-77
2022/06/30 11:05:58;;;;;;;;;5.67;5.00;;;;;17.62;64.41;101110.03;6277896;22;45446;-77
2022/06/30 11:08:36;;;;;;;;;3.00;3.00;;;;;17.71;64.32;101108.91;6249368;22;45229;-78
2022/06/30 11:11:19;;;;;;;;;4.00;3.67;;;;;17.74;64.17;101107.00;6276037;22;45416;-77
2022/06/30 11:13:49;;;;;;;;;4.00;3.00;;;;;17.76;63.92;101104.31;6276630;22;45584;-78
2022/06/30 11:16:15;;;;;;;;;5.00;3.33;;;;;17.73;63.97;101091.09;6279188;22;45283;-78
2022/06/30 11:18:41;;;;;;;;;4.00;3.00;;;;;17.75;63.83;101099.91;6278659;22;45436;-78
2022/06/30 11:21:07;;;;;;;;;4.67;3.00;;;;;17.73;63.87;101091.09;6278530;22;45336;-77
2022/06/30 11:23:40;;;;;;;;;4.00;4.00;;;;;17.71;64.12;101092.94;6278129;22;45513;-78
2022/06/30 11:28:52;;;;;;;;;3.00;3.00;;;;;17.77;64.18;101087.41;6278293;22;45252;-78
2022/06/30 11:31:35;;;;;;;;;5.00;2.33;;;;;17.81;63.69;101079.34;6278410;22;45308;-78
2022/06/30 11:34:05;;;;;;;;;2.67;2.67;;;;;17.86;64.29;101068.56;6275929;22;45581;-79
2022/06/30 11:36:39;;;;;;;;;2.00;2.00;;;;;17.94;63.57;101082.53;6278003;22;45415;-78
2022/06/30 11:39:18;;;;;;;;;;;;;;;;;;;;;
2022/06/30 11:41:55;;;;;;;;;5.00;2.67;;;;;17.91;63.39;101100.38;6276699;22;68946;-78
2022/06/30 11:44:41;;;;;;;;;3.67;3.00;;;;;17.88;63.31;101093.34;6249864;22;45291;-77
2022/06/30 11:47:10;;;;;;;;;3.50;3.00;;;;;17.89;63.47;101092.44;6276963;22;45753;-78
2022/06/30 11:49:59;;;;;;;;;2.67;2.67;;;;;17.89;62.88;101094.25;6250163;22;45198;-77